createdAt,value
2023-01-17T00:02:03.728Z,4.34
2023-01-17T00:04:49.054Z,4.33
2023-01-17T00:07:36.579Z,4.37
2023-01-17T00:10:07.488Z,4.38
2023-01-17T00:12:36.939Z,4.42
2023-01-17T00:15:05.393Z,4.42
2023-01-17T00:17:32.956Z,4.48
2023-01-17T00:20:20.078Z,4.50
2023-01-17T00:23:05.388Z,4.48
2023-01-17T00:25:53.695Z,4.45
2023-01-17T00:28:21.655Z,4.50
2023-01-17T00:30:48.759Z,4.48
2023-01-17T00:33:15.230Z,4.52
2023-01-17T00:35:42.164Z,4.47
2023-01-17T00:38:11.066Z,4.50
2023-01-17T00:40:39.104Z,4.49
2023-01-17T00:43:25.064Z,4.49
2023-01-17T00:46:11.651Z,4.49
2023-01-17T00:48:57.724Z,4.52
2023-01-17T00:51:43.508Z,4.52
2023-01-17T00:54:28.801Z,4.39
2023-01-17T00:57:14.085Z,4.39
2023-01-17T00:59:59.450Z,4.39
2023-01-17T01:02:46.196Z,4.37
2023-01-17T01:05:32.246Z,4.37
2023-01-17T01:08:18.121Z,4.20
2023-01-17T01:11:05.056Z,4.21
2023-01-17T01:13:51.081Z,4.07
2023-01-17T01:16:37.412Z,3.98
2023-01-17T01:19:24.409Z,4.03
2023-01-17T01:22:09.818Z,4.09
2023-01-17T01:24:55.279Z,3.84
2023-01-17T01:27:40.503Z,3.88
2023-01-17T01:30:26.893Z,3.85
2023-01-17T01:33:12.373Z,3.87
2023-01-17T01:35:41.852Z,3.84
2023-01-17T01:38:09.588Z,3.86
2023-01-17T01:40:43.047Z,3.88
2023-01-17T01:43:13.081Z,3.91
2023-01-17T01:45:41.292Z,3.83
2023-01-17T01:48:23.604Z,3.92
2023-01-17T01:50:52.691Z,3.77
2023-01-17T01:53:22.103Z,3.72
2023-01-17T01:55:51.905Z,3.77
2023-01-17T01:58:23.176Z,3.84
2023-01-17T02:00:51.392Z,3.92
2023-01-17T02:03:22.425Z,3.88
2023-01-17T02:05:50.225Z,3.89
2023-01-17T02:08:23.359Z,3.87
2023-01-17T02:10:51.695Z,3.81
2023-01-17T02:13:21.912Z,3.92
2023-01-17T02:15:58.017Z,3.80
2023-01-17T02:18:37.111Z,3.79
2023-01-17T02:21:24.105Z,3.93
2023-01-17T02:24:24.205Z,3.84
2023-01-17T02:26:58.110Z,3.80
2023-01-17T02:30:21.640Z,3.76
2023-01-17T02:33:01.037Z,3.78
2023-01-17T02:35:35.367Z,3.85
2023-01-17T02:38:16.037Z,3.89
2023-01-17T02:40:49.189Z,3.82
2023-01-17T02:43:19.298Z,3.68
2023-01-17T02:45:46.923Z,3.68
2023-01-17T02:48:20.604Z,3.64
2023-01-17T02:51:17.695Z,3.73
2023-01-17T02:54:00.652Z,3.77
2023-01-17T02:56:41.736Z,3.78
2023-01-17T02:59:20.131Z,3.90
2023-01-17T03:02:08.096Z,3.99
2023-01-17T03:04:43.365Z,3.87
2023-01-17T03:07:16.232Z,3.97
2023-01-17T03:09:45.808Z,3.92
2023-01-17T03:12:15.263Z,3.96
2023-01-17T03:14:42.794Z,4.04
2023-01-17T03:17:10.328Z,4.08
2023-01-17T03:19:39.174Z,4.09
2023-01-17T03:22:06.658Z,3.97
2023-01-17T03:24:34.177Z,3.92
2023-01-17T03:27:01.689Z,3.97
2023-01-17T03:29:29.229Z,4.01
2023-01-17T03:31:56.713Z,3.97
2023-01-17T03:34:24.431Z,3.96
2023-01-17T03:36:53.251Z,3.94
2023-01-17T03:39:20.750Z,3.90
2023-01-17T03:41:48.298Z,3.83
2023-01-17T03:44:15.829Z,3.84
2023-01-17T03:46:43.412Z,3.77
2023-01-17T03:49:11.094Z,3.91
2023-01-17T03:51:38.695Z,3.96
2023-01-17T03:54:07.701Z,4.01
2023-01-17T03:56:35.206Z,3.94
2023-01-17T03:59:03.274Z,3.90
2023-01-17T04:01:30.871Z,3.90
2023-01-17T04:03:58.620Z,3.97
2023-01-17T04:06:26.151Z,3.97
2023-01-17T04:08:53.854Z,3.97
2023-01-17T04:11:22.746Z,4.01
2023-01-17T04:13:50.260Z,4.09
2023-01-17T04:16:19.308Z,4.06
2023-01-17T04:18:46.837Z,4.11
2023-01-17T04:21:14.396Z,4.12
2023-01-17T04:23:41.966Z,4.24
2023-01-17T04:26:10.020Z,4.18
2023-01-17T04:28:39.151Z,4.12
2023-01-17T04:31:07.043Z,4.12
2023-01-17T04:33:34.579Z,4.12
2023-01-17T04:36:02.107Z,4.05
2023-01-17T04:38:29.676Z,3.94
2023-01-17T04:40:57.215Z,3.86
2023-01-17T04:43:24.890Z,3.91
2023-01-17T04:45:57.014Z,3.83
2023-01-17T04:48:24.818Z,3.69
2023-01-17T04:50:52.486Z,3.69
2023-01-17T04:53:19.990Z,3.67
2023-01-17T04:55:47.838Z,3.49
2023-01-17T04:58:15.375Z,3.37
2023-01-17T05:00:42.848Z,3.32
2023-01-17T05:03:11.738Z,3.04
2023-01-17T05:05:39.236Z,3.04
2023-01-17T05:08:06.744Z,2.98
2023-01-17T05:10:34.233Z,3.01
2023-01-17T05:13:02.875Z,2.89
2023-01-17T05:15:30.937Z,2.95
2023-01-17T05:17:58.678Z,2.84
2023-01-17T05:20:28.615Z,2.85
2023-01-17T05:22:56.799Z,2.79
2023-01-17T05:25:25.677Z,2.89
2023-01-17T05:27:53.615Z,2.85
2023-01-17T05:30:22.075Z,2.97
2023-01-17T05:32:50.372Z,2.95
2023-01-17T05:35:19.549Z,3.00
2023-01-17T05:37:49.912Z,3.09
2023-01-17T05:40:17.835Z,3.10
2023-01-17T05:42:47.040Z,3.14
2023-01-17T05:45:16.784Z,3.17
2023-01-17T05:47:44.898Z,3.16
2023-01-17T05:50:13.127Z,3.26
2023-01-17T05:52:41.454Z,3.27
2023-01-17T05:55:11.139Z,3.42
2023-01-17T05:57:39.671Z,3.42
2023-01-17T06:00:08.588Z,3.42
2023-01-17T06:02:36.208Z,3.34
2023-01-17T06:05:03.916Z,3.21
2023-01-17T06:07:31.479Z,3.11
2023-01-17T06:09:59.161Z,3.12
2023-01-17T06:12:28.105Z,3.10
2023-01-17T06:14:55.723Z,3.08
2023-01-17T06:17:23.215Z,3.03
2023-01-17T06:19:50.733Z,3.09
2023-01-17T06:22:18.241Z,3.02
2023-01-17T06:24:45.821Z,3.03
2023-01-17T06:27:13.327Z,2.95
2023-01-17T06:29:42.243Z,2.92
2023-01-17T06:32:10.066Z,2.84
2023-01-17T06:34:38.886Z,2.88
2023-01-17T06:37:06.533Z,2.83
2023-01-17T06:39:34.151Z,2.75
2023-01-17T06:42:01.957Z,2.64
2023-01-17T06:44:29.565Z,2.54
2023-01-17T06:46:58.475Z,2.52
2023-01-17T06:49:26.937Z,2.46
2023-01-17T06:51:54.504Z,2.47
2023-01-17T06:54:22.032Z,2.43
2023-01-17T06:56:49.587Z,2.45
2023-01-17T06:59:17.087Z,2.44
2023-01-17T07:01:44.676Z,2.44
2023-01-17T07:04:13.587Z,2.47
2023-01-17T07:06:41.117Z,2.48
2023-01-17T07:09:08.588Z,2.49
2023-01-17T07:11:36.146Z,2.53
2023-01-17T07:14:03.622Z,2.57
2023-01-17T07:16:31.193Z,2.64
2023-01-17T07:18:58.765Z,2.61
2023-01-17T07:21:27.631Z,2.60
2023-01-17T07:23:55.551Z,2.61
2023-01-17T07:26:23.035Z,2.68
2023-01-17T07:28:50.569Z,2.66
2023-01-17T07:31:18.112Z,2.66
2023-01-17T07:33:45.669Z,2.65
2023-01-17T07:36:13.193Z,2.63
2023-01-17T07:38:43.840Z,2.72
2023-01-17T07:41:11.364Z,2.72
2023-01-17T07:43:38.992Z,2.75
2023-01-17T07:46:07.347Z,2.81
2023-01-17T07:48:35.185Z,2.86
2023-01-17T07:51:02.780Z,2.81
2023-01-17T07:53:32.658Z,2.86
2023-01-17T07:56:04.239Z,2.91
2023-01-17T07:58:32.047Z,2.94
2023-01-17T08:01:03.832Z,2.97
2023-01-17T08:03:32.280Z,3.01
2023-01-17T08:06:00.222Z,2.99
2023-01-17T08:08:28.588Z,3.07
2023-01-17T08:10:56.355Z,3.12
2023-01-17T08:13:25.545Z,2.97
2023-01-17T08:15:54.360Z,2.86
2023-01-17T08:18:22.003Z,2.77
2023-01-17T08:20:49.508Z,2.70
2023-01-17T08:23:17.078Z,2.73
2023-01-17T08:25:44.643Z,2.75
2023-01-17T08:28:12.691Z,2.83
2023-01-17T08:30:41.583Z,2.91
2023-01-17T08:33:09.244Z,2.96
2023-01-17T08:35:36.791Z,2.92
2023-01-17T08:38:04.874Z,2.66
2023-01-17T08:40:33.101Z,2.65
2023-01-17T08:43:01.947Z,2.45
2023-01-17T08:45:29.908Z,2.40
2023-01-17T08:48:00.349Z,2.32
2023-01-17T08:50:28.254Z,2.21
2023-01-17T08:53:01.205Z,2.25
2023-01-17T08:55:29.393Z,2.23
2023-01-17T08:57:57.789Z,2.29
2023-01-17T09:00:27.012Z,2.35
2023-01-17T09:02:54.741Z,2.40
2023-01-17T09:05:23.635Z,2.48
2023-01-17T09:07:51.390Z,2.54
2023-01-17T09:10:19.064Z,2.65
2023-01-17T09:12:46.708Z,2.72
2023-01-17T09:15:17.661Z,2.94
2023-01-17T09:17:45.235Z,3.00
2023-01-17T09:20:13.456Z,3.09
2023-01-17T09:22:42.366Z,3.09
2023-01-17T09:25:10.342Z,3.12
2023-01-17T09:27:37.892Z,2.94
2023-01-17T09:30:06.379Z,2.91
2023-01-17T09:32:33.961Z,2.89
2023-01-17T09:35:01.521Z,2.79
2023-01-17T09:37:29.973Z,2.84
2023-01-17T09:39:58.848Z,2.88
2023-01-17T09:42:35.257Z,2.89
2023-01-17T09:45:03.078Z,2.96
2023-01-17T09:47:35.546Z,2.94
2023-01-17T09:50:18.070Z,2.96
2023-01-17T09:52:46.126Z,2.97
2023-01-17T09:55:16.868Z,2.97
2023-01-17T09:57:51.536Z,2.96
2023-01-17T10:00:34.523Z,2.94
2023-01-17T10:03:29.991Z,3.00
2023-01-17T10:06:07.145Z,3.00
2023-01-17T10:09:07.930Z,3.01
2023-01-17T10:11:49.850Z,2.86
2023-01-17T10:14:34.211Z,2.73
2023-01-17T10:17:13.512Z,2.68
2023-01-17T10:19:56.318Z,2.93
2023-01-17T10:22:51.124Z,3.01
2023-01-17T10:25:36.765Z,3.04
2023-01-17T10:28:15.330Z,3.19
2023-01-17T10:30:49.399Z,3.36
2023-01-17T10:33:20.707Z,3.42
2023-01-17T10:35:54.810Z,3.43
2023-01-17T10:38:29.871Z,3.66
2023-01-17T10:41:02.835Z,3.60
2023-01-17T10:43:41.508Z,3.87
2023-01-17T10:46:16.306Z,4.03
2023-01-17T10:48:47.575Z,4.07
2023-01-17T10:51:33.400Z,4.14
2023-01-17T10:54:14.968Z,4.02
2023-01-17T10:56:42.633Z,4.14
2023-01-17T10:59:29.507Z,4.29
2023-01-17T11:01:57.410Z,4.16
2023-01-17T11:04:33.248Z,4.09
2023-01-17T11:07:12.917Z,4.02
2023-01-17T11:09:42.235Z,3.88
2023-01-17T11:12:19.545Z,3.91
2023-01-17T11:14:59.455Z,3.48
2023-01-17T11:17:28.430Z,3.11
2023-01-17T11:20:08.818Z,2.43
2023-01-17T11:22:36.857Z,2.36
2023-01-17T11:25:05.341Z,2.44
2023-01-17T11:27:35.954Z,2.43
2023-01-17T11:30:15.927Z,2.43
2023-01-17T11:32:53.665Z,2.43
2023-01-17T11:35:25.409Z,2.64
2023-01-17T11:37:59.099Z,2.89
2023-01-17T11:40:30.682Z,3.21
2023-01-17T11:43:20.364Z,3.33
2023-01-17T11:46:03.443Z,3.59
2023-01-17T11:48:39.286Z,3.84
2023-01-17T11:51:22.121Z,3.99
2023-01-17T11:53:49.824Z,3.91
2023-01-17T11:56:31.129Z,3.84
2023-01-17T11:59:23.459Z,3.93
2023-01-17T12:02:04.008Z,3.90
2023-01-17T12:04:39.419Z,3.89
2023-01-17T12:07:29.220Z,3.85
2023-01-17T12:10:07.859Z,3.64
2023-01-17T12:13:08.291Z,3.69
2023-01-17T12:15:49.606Z,3.59
2023-01-17T12:18:33.979Z,3.76
2023-01-17T12:21:16.356Z,3.91
2023-01-17T12:24:03.026Z,4.10
2023-01-17T12:26:37.576Z,4.27
2023-01-17T12:29:28.947Z,4.18
2023-01-17T12:32:10.832Z,4.23
2023-01-17T12:34:42.593Z,4.36
2023-01-17T12:37:20.234Z,4.21
2023-01-17T12:39:54.935Z,4.41
2023-01-17T12:42:26.888Z,4.43
2023-01-17T12:44:59.204Z,4.27
2023-01-17T12:47:26.805Z,4.17
2023-01-17T12:50:05.078Z,4.15
2023-01-17T12:52:48.589Z,3.93
2023-01-17T12:55:21.312Z,3.84
2023-01-17T12:57:56.978Z,3.71
2023-01-17T13:00:29.482Z,3.73
2023-01-17T13:03:04.102Z,3.81
2023-01-17T13:05:38.208Z,3.73
2023-01-17T13:08:18.181Z,3.68
2023-01-17T13:10:51.130Z,3.55
2023-01-17T13:13:22.409Z,3.51
2023-01-17T13:15:52.641Z,3.40
2023-01-17T13:18:25.898Z,3.42
2023-01-17T13:21:08.245Z,3.38
2023-01-17T13:23:50.895Z,3.41
2023-01-17T13:26:27.599Z,3.43
2023-01-17T13:29:05.910Z,3.39
2023-01-17T13:31:45.487Z,3.39
2023-01-17T13:34:35.080Z,3.48
2023-01-17T13:37:22.947Z,3.53
2023-01-17T13:40:06.423Z,3.50
2023-01-17T13:42:45.252Z,3.62
2023-01-17T13:45:20.138Z,3.77
2023-01-17T13:47:47.940Z,3.85
2023-01-17T13:50:47.801Z,4.01
2023-01-17T13:53:48.004Z,4.18
2023-01-17T13:56:24.770Z,4.45
2023-01-17T13:58:57.905Z,4.56
2023-01-17T14:01:51.450Z,4.59
2023-01-17T14:04:19.318Z,4.49
2023-01-17T14:06:49.909Z,4.45
2023-01-17T14:09:28.071Z,4.42
2023-01-17T14:12:25.456Z,4.33
2023-01-17T14:14:56.580Z,4.36
2023-01-17T14:17:42.904Z,4.01
2023-01-17T14:20:44.585Z,4.12
2023-01-17T14:23:23.821Z,4.13
2023-01-17T14:25:53.662Z,4.27
2023-01-17T14:28:30.182Z,4.19
2023-01-17T14:30:59.912Z,4.25
2023-01-17T14:33:30.527Z,4.33
2023-01-17T14:36:01.696Z,4.28
2023-01-17T14:38:31.856Z,4.06
2023-01-17T14:41:03.457Z,4.23
2023-01-17T14:43:33.964Z,4.29
2023-01-17T14:46:04.944Z,4.19
2023-01-17T14:48:32.584Z,4.01
2023-01-17T14:51:01.718Z,4.08
2023-01-17T14:53:31.256Z,4.03
2023-01-17T14:56:02.926Z,3.84
2023-01-17T14:58:32.528Z,3.82
2023-01-17T15:01:02.698Z,3.67
2023-01-17T15:03:34.800Z,3.55
2023-01-17T15:06:11.807Z,3.62
2023-01-17T15:08:40.050Z,3.60
2023-01-17T15:11:16.896Z,3.52
2023-01-17T15:13:49.408Z,3.48
2023-01-17T15:16:24.070Z,3.49
2023-01-17T15:18:52.404Z,3.60
2023-01-17T15:21:22.607Z,3.63
2023-01-17T15:23:53.751Z,3.51
2023-01-17T15:26:26.211Z,3.60
2023-01-17T15:28:57.228Z,3.63
2023-01-17T15:31:26.697Z,3.63
2023-01-17T15:33:57.490Z,3.63
2023-01-17T15:36:30.076Z,3.55
2023-01-17T15:39:00.092Z,3.59
2023-01-17T15:41:32.236Z,3.48
2023-01-17T15:44:00.254Z,3.41
2023-01-17T15:46:34.033Z,3.50
2023-01-17T15:49:19.599Z,3.38
2023-01-17T15:51:50.737Z,3.30
2023-01-17T15:54:34.087Z,3.42
2023-01-17T15:57:17.922Z,3.31
2023-01-17T15:59:48.752Z,3.26
2023-01-17T16:02:35.236Z,3.21
2023-01-17T16:05:05.931Z,3.19
2023-01-17T16:07:35.631Z,3.22
2023-01-17T16:10:08.110Z,3.19
2023-01-17T16:12:37.029Z,3.21
2023-01-17T16:15:16.392Z,3.14
2023-01-17T16:17:49.611Z,3.07
2023-01-17T16:20:20.890Z,3.08
2023-01-17T16:22:49.381Z,3.12
2023-01-17T16:25:19.154Z,3.16
2023-01-17T16:27:48.473Z,3.14
2023-01-17T16:30:18.186Z,3.21
2023-01-17T16:32:48.386Z,3.00
2023-01-17T16:35:20.640Z,2.91
2023-01-17T16:37:50.129Z,2.84
2023-01-17T16:40:18.484Z,2.83
2023-01-17T16:42:46.400Z,2.87
2023-01-17T16:45:16.274Z,2.78
2023-01-17T16:47:44.870Z,2.80
2023-01-17T16:50:15.339Z,2.77
2023-01-17T16:52:42.906Z,2.78
2023-01-17T16:55:12.396Z,2.67
2023-01-17T16:57:40.152Z,2.70
2023-01-17T17:00:09.509Z,2.65
2023-01-17T17:02:39.391Z,2.56
2023-01-17T17:05:08.254Z,2.57
2023-01-17T17:07:42.490Z,2.67
2023-01-17T17:10:11.314Z,2.64
2023-01-17T17:12:38.887Z,2.55
2023-01-17T17:15:07.460Z,2.54
2023-01-17T17:17:35.824Z,2.53
2023-01-17T17:20:05.501Z,2.58
2023-01-17T17:22:33.402Z,2.46
2023-01-17T17:25:00.922Z,2.51
2023-01-17T17:27:28.652Z,2.48
2023-01-17T17:29:56.171Z,2.52
2023-01-17T17:32:23.924Z,2.53
2023-01-17T17:34:51.495Z,2.36
2023-01-17T17:37:22.363Z,2.40
2023-01-17T17:39:49.953Z,2.35
2023-01-17T17:42:19.625Z,2.32
2023-01-17T17:44:47.246Z,2.28
2023-01-17T17:47:16.068Z,2.29
2023-01-17T17:49:43.745Z,2.16
2023-01-17T17:52:11.518Z,2.19
2023-01-17T17:54:40.349Z,2.18
2023-01-17T17:57:08.433Z,2.15
2023-01-17T17:59:36.039Z,2.23
2023-01-17T18:02:05.900Z,2.02
2023-01-17T18:04:33.445Z,2.04
2023-01-17T18:07:00.974Z,2.08
2023-01-17T18:09:28.660Z,2.10
2023-01-17T18:11:58.361Z,2.18
2023-01-17T18:14:26.929Z,2.08
2023-01-17T18:16:54.577Z,1.99
2023-01-17T18:19:24.064Z,1.98
2023-01-17T18:21:52.276Z,1.91
2023-01-17T18:24:21.608Z,2.01
2023-01-17T18:26:51.527Z,1.85
2023-01-17T18:29:25.927Z,2.02
2023-01-17T18:31:54.990Z,2.02
2023-01-17T18:34:26.841Z,1.87
2023-01-17T18:36:54.450Z,1.84
2023-01-17T18:39:24.285Z,1.89
2023-01-17T18:41:52.175Z,1.95
2023-01-17T18:44:22.371Z,1.87
2023-01-17T18:46:50.379Z,1.85
2023-01-17T18:49:19.169Z,1.97
2023-01-17T18:51:50.507Z,1.83
2023-01-17T18:54:19.141Z,1.78
2023-01-17T18:56:46.777Z,1.89
2023-01-17T18:59:17.973Z,1.82
2023-01-17T19:01:47.515Z,1.86
2023-01-17T19:04:17.133Z,1.89
2023-01-17T19:06:47.952Z,1.93
2023-01-17T19:09:16.935Z,1.65
2023-01-17T19:11:46.061Z,1.68
2023-01-17T19:14:14.350Z,1.83
2023-01-17T19:16:42.773Z,1.64
2023-01-17T19:19:14.769Z,1.59
2023-01-17T19:21:42.440Z,1.65
2023-01-17T19:24:12.860Z,1.63
2023-01-17T19:26:40.400Z,1.71
2023-01-17T19:29:08.007Z,1.78
2023-01-17T19:31:42.289Z,1.69
2023-01-17T19:34:13.667Z,1.70
2023-01-17T19:36:41.690Z,1.73
2023-01-17T19:39:10.413Z,1.66
2023-01-17T19:41:42.102Z,1.60
2023-01-17T19:44:12.086Z,1.59
2023-01-17T19:46:39.989Z,1.61
2023-01-17T19:49:09.660Z,1.77
2023-01-17T19:51:39.552Z,1.71
2023-01-17T19:54:08.197Z,1.55
2023-01-17T19:56:35.990Z,1.52
2023-01-17T19:59:03.629Z,1.47
2023-01-17T20:01:33.578Z,1.57
2023-01-17T20:04:02.812Z,1.51
2023-01-17T20:06:32.117Z,1.55
2023-01-17T20:09:01.434Z,1.50
2023-01-17T20:11:29.572Z,1.49
2023-01-17T20:13:58.671Z,1.37
2023-01-17T20:16:28.233Z,1.48
2023-01-17T20:18:56.040Z,1.46
2023-01-17T20:21:25.902Z,1.41
2023-01-17T20:23:54.572Z,1.55
2023-01-17T20:26:29.019Z,1.38
2023-01-17T20:28:56.539Z,1.50
2023-01-17T20:31:26.601Z,1.40
2023-01-17T20:33:56.192Z,1.44
2023-01-17T20:36:25.620Z,1.35
2023-01-17T20:38:54.315Z,1.41
2023-01-17T20:41:24.951Z,1.39
2023-01-17T20:43:53.887Z,1.48
2023-01-17T20:46:23.052Z,1.34
2023-01-17T20:48:52.038Z,1.35
2023-01-17T20:51:20.786Z,1.37
2023-01-17T20:53:53.141Z,1.19
2023-01-17T20:56:20.831Z,1.28
2023-01-17T20:58:51.648Z,1.28
2023-01-17T21:01:21.069Z,1.25
2023-01-17T21:03:51.539Z,1.35
2023-01-17T21:06:20.567Z,1.28
2023-01-17T21:08:49.103Z,1.24
2023-01-17T21:11:19.967Z,1.29
2023-01-17T21:13:49.698Z,1.28
2023-01-17T21:16:17.882Z,1.27
2023-01-17T21:18:47.705Z,1.18
2023-01-17T21:21:17.933Z,1.22
2023-01-17T21:23:46.078Z,1.16
2023-01-17T21:26:16.036Z,1.21
2023-01-17T21:28:45.676Z,1.20
2023-01-17T21:31:20.328Z,1.17
2023-01-17T21:33:48.814Z,1.08
2023-01-17T21:36:16.713Z,1.19
2023-01-17T21:38:44.732Z,1.10
2023-01-17T21:41:12.235Z,1.16
2023-01-17T21:43:39.791Z,1.07
2023-01-17T21:46:07.529Z,1.07
2023-01-17T21:48:36.469Z,1.19
2023-01-17T21:51:05.537Z,1.09
2023-01-17T21:53:34.764Z,0.95
2023-01-17T21:56:20.135Z,0.98
2023-01-17T21:58:53.210Z,1.06
2023-01-17T22:01:22.678Z,1.08
2023-01-17T22:03:53.704Z,1.11
2023-01-17T22:06:22.655Z,1.17
2023-01-17T22:08:50.188Z,1.12
2023-01-17T22:11:19.633Z,1.03
2023-01-17T22:13:47.380Z,0.90
2023-01-17T22:16:17.360Z,0.85
2023-01-17T22:18:46.002Z,0.78
2023-01-17T22:21:18.065Z,0.65
2023-01-17T22:23:47.326Z,0.60
2023-01-17T22:26:15.538Z,0.53
2023-01-17T22:28:43.939Z,0.56
2023-01-17T22:31:13.319Z,0.39
2023-01-17T22:33:43.251Z,0.41
2023-01-17T22:36:13.483Z,0.44
2023-01-17T22:38:43.259Z,0.38
2023-01-17T22:41:13.060Z,0.38
2023-01-17T22:43:42.572Z,0.41
2023-01-17T22:46:12.469Z,0.35
2023-01-17T22:48:40.816Z,0.35
2023-01-17T22:51:09.892Z,0.37
2023-01-17T22:53:42.859Z,0.36
2023-01-17T22:56:12.486Z,0.37
2023-01-17T22:58:42.240Z,0.33
2023-01-17T23:01:12.781Z,0.39
2023-01-17T23:03:41.620Z,0.51
2023-01-17T23:06:11.802Z,0.41
2023-01-17T23:08:40.800Z,0.41
2023-01-17T23:11:36.567Z,0.40
2023-01-17T23:14:04.121Z,0.51
2023-01-17T23:16:49.455Z,0.59
2023-01-17T23:19:23.091Z,0.50
2023-01-17T23:22:09.256Z,0.52
2023-01-17T23:24:39.388Z,0.53
2023-01-17T23:27:34.363Z,0.42
2023-01-17T23:30:02.590Z,0.51
2023-01-17T23:32:30.130Z,0.55
2023-01-17T23:34:57.672Z,0.59
2023-01-17T23:37:50.860Z,0.57
2023-01-17T23:40:19.260Z,0.46
2023-01-17T23:43:05.548Z,0.59
2023-01-17T23:45:35.322Z,0.41
2023-01-17T23:48:05.368Z,0.43
2023-01-17T23:50:33.042Z,0.48
2023-01-17T23:53:05.737Z,0.51
2023-01-17T23:55:33.334Z,0.42
2023-01-17T23:58:02.162Z,0.46
